Time;durP1;ratioP1;P1;durP2;ratioP2;P2;SDS_P1;SDS_P2;PMS_P1;PMS_P2;Temp;Humidity;BMP_temperature;BMP_pressure;BME280_temperature;BME280_humidity;BME280_pressure;Samples;Min_cycle;Max_cycle;Signal;HPM_P1;HPM_P2
2023/09/28 00:02:21;;;;;;;;;;;20.10;66.80;;;;;;5062073;28;19909;-83
2023/09/28 00:04:46;;;;;;;;;;;20.20;66.10;;;;;;5060225;28;19939;-83
2023/09/28 00:07:12;;;;;;;;;;;20.10;66.50;;;;;;5059726;28;19908;-83
2023/09/28 00:09:37;;;;;;;;;;;20.20;66.40;;;;;;5060887;28;19959;-82
2023/09/28 00:12:03;;;;;;;;;;;20.10;66.20;;;;;;5066489;28;19920;-83
2023/09/28 00:14:28;;;;;;;;;;;20.30;65.80;;;;;;5058950;28;19927;-83
2023/09/28 00:16:55;;;;;;;;;;;20.30;65.90;;;;;;5059169;28;19983;-83
2023/09/28 00:19:20;;;;;;;;;;;20.30;65.30;;;;;;5056027;28;19939;-83
2023/09/28 00:21:45;;;;;;;;;;;20.30;65.60;;;;;;5064070;28;19921;-83
2023/09/28 00:24:11;;;;;;;;;;;20.30;65.50;;;;;;5056297;28;19913;-83
2023/09/28 00:26:37;;;;;;;;;;;20.30;65.40;;;;;;5058529;28;20039;-83
2023/09/28 00:29:03;;;;;;;;;;;20.20;66.00;;;;;;5061866;28;19958;-83
2023/09/28 00:31:28;;;;;;;;;;;20.20;65.60;;;;;;5062237;28;19913;-83
2023/09/28 00:33:54;;;;;;;;;;;20.20;66.00;;;;;;5052999;28;19971;-84
2023/09/28 00:36:20;;;;;;;;;;;20.20;66.20;;;;;;5062188;28;19917;-83
2023/09/28 00:38:47;;;;;;;;;;;20.10;66.50;;;;;;5058179;28;19913;-84
2023/09/28 00:41:12;;;;;;;;;;;20.00;66.80;;;;;;5055218;28;20523;-84
2023/09/28 00:43:38;;;;;;;;;;;20.00;66.70;;;;;;5059105;28;19913;-84
2023/09/28 00:46:04;;;;;;;;;;;20.00;67.40;;;;;;5063162;28;19913;-83
2023/09/28 00:48:30;;;;;;;;;;;20.10;66.10;;;;;;5055911;28;20374;-83
2023/09/28 00:50:56;;;;;;;;;;;20.10;65.80;;;;;;5061934;28;19995;-83
2023/09/28 00:53:21;;;;;;;;;;;20.10;66.70;;;;;;5056903;28;19966;-83
2023/09/28 00:55:47;;;;;;;;;;;20.00;67.40;;;;;;5060933;28;19932;-84
2023/09/28 00:58:13;;;;;;;;;;;19.90;67.80;;;;;;5058195;28;19919;-83
2023/09/28 01:00:40;;;;;;;;;;;19.90;67.40;;;;;;5057930;28;19960;-83
2023/09/28 01:03:06;;;;;;;;;;;19.80;67.20;;;;;;5054899;28;19967;-83
2023/09/28 01:20:30;;;;;;;;;;;19.80;67.80;;;;;;5060980;28;19924;-83
2023/09/28 01:22:55;;;;;;;;;;;19.70;67.60;;;;;;5062240;28;19917;-84
2023/09/28 01:25:21;;;;;;;;;;;19.70;67.50;;;;;;5042556;28;20273;-83
2023/09/28 01:27:46;;;;;;;;;;;19.70;68.90;;;;;;5057479;28;19912;-82
2023/09/28 01:30:16;;;;;;;;;;;19.80;67.90;;;;;;5057853;28;19951;-82
2023/09/28 01:32:42;;;;;;;;;;;19.70;68.20;;;;;;5063956;28;19917;-83
2023/09/28 01:35:07;;;;;;;;;;;19.80;67.30;;;;;;5060228;28;20498;-83
2023/09/28 01:37:39;;;;;;;;;;;19.80;67.50;;;;;;5061919;28;19912;-84
2023/09/28 01:40:04;;;;;;;;;;;19.90;66.80;;;;;;5063459;28;19928;-83
2023/09/28 01:42:30;;;;;;;;;;;19.90;67.00;;;;;;5055492;28;19916;-84
2023/09/28 01:44:55;;;;;;;;;;;19.90;67.40;;;;;;5057010;28;19934;-83
2023/09/28 01:47:21;;;;;;;;;;;19.80;67.30;;;;;;5055123;28;19921;-83
2023/09/28 01:49:46;;;;;;;;;;;19.80;67.60;;;;;;5047585;28;19913;-82
2023/09/28 01:52:12;;;;;;;;;;;19.80;67.50;;;;;;5055243;28;19916;-82
2023/09/28 01:54:37;;;;;;;;;;;19.80;68.00;;;;;;5055024;28;20428;-82
2023/09/28 01:57:02;;;;;;;;;;;19.80;67.20;;;;;;5055395;28;20000;-82
2023/09/28 01:59:28;;;;;;;;;;;19.80;67.90;;;;;;5049553;28;19924;-82
2023/09/28 02:01:53;;;;;;;;;;;19.80;67.60;;;;;;5071209;28;20293;-82
2023/09/28 02:04:19;;;;;;;;;;;19.80;68.10;;;;;;5057585;28;19920;-83
2023/09/28 02:06:44;;;;;;;;;;;19.70;67.80;;;;;;5043629;28;19909;-83
2023/09/28 02:09:11;;;;;;;;;;;19.70;67.90;;;;;;5053400;28;19912;-82
2023/09/28 02:11:43;;;;;;;;;;;19.70;68.00;;;;;;5058776;28;19912;-83
2023/09/28 02:14:10;;;;;;;;;;;19.60;69.00;;;;;;5053398;28;19916;-82
2023/09/28 02:16:35;;;;;;;;;;;19.60;68.20;;;;;;5073333;28;19917;-83
2023/09/28 02:19:01;;;;;;;;;;;19.60;68.40;;;;;;5060811;28;19916;-82
2023/09/28 02:21:26;;;;;;;;;;;19.60;68.10;;;;;;5059879;28;19930;-82
2023/09/28 02:23:53;;;;;;;;;;;19.60;68.20;;;;;;5047124;28;19925;-83
2023/09/28 02:26:19;;;;;;;;;;;19.70;68.10;;;;;;5060856;28;19924;-83
2023/09/28 02:28:44;;;;;;;;;;;19.60;68.60;;;;;;5058654;28;20325;-82
2023/09/28 02:31:10;;;;;;;;;;;19.60;69.10;;;;;;5053287;28;19913;-83
2023/09/28 02:33:35;;;;;;;;;;;19.50;69.40;;;;;;5054577;28;19924;-82
2023/09/28 02:36:01;;;;;;;;;;;19.50;68.80;;;;;;5047876;28;19916;-82
2023/09/28 02:38:27;;;;;;;;;;;19.50;68.80;;;;;;5052035;28;19913;-83
2023/09/28 02:40:52;;;;;;;;;;;19.50;69.20;;;;;;5054783;28;19917;-83
2023/09/28 02:43:18;;;;;;;;;;;19.40;69.40;;;;;;5052119;28;19917;-83
2023/09/28 02:45:43;;;;;;;;;;;19.40;69.50;;;;;;5053773;28;19970;-83
2023/09/28 02:48:08;;;;;;;;;;;19.30;69.70;;;;;;5053309;28;19909;-82
2023/09/28 02:50:34;;;;;;;;;;;19.30;69.20;;;;;;5062737;28;20067;-83
2023/09/28 02:52:59;;;;;;;;;;;19.30;69.70;;;;;;5055386;28;19923;-83
2023/09/28 02:55:25;;;;;;;;;;;19.40;68.90;;;;;;5050432;28;19920;-83
2023/09/28 02:57:51;;;;;;;;;;;19.40;69.40;;;;;;5059573;28;19912;-82
2023/09/28 03:00:24;;;;;;;;;;;19.30;69.80;;;;;;5056507;28;19919;-83
2023/09/28 03:02:51;;;;;;;;;;;19.30;69.60;;;;;;5060077;28;19948;-83
2023/09/28 03:05:20;;;;;;;;;;;19.30;69.30;;;;;;5053391;28;19920;-82
2023/09/28 03:07:46;;;;;;;;;;;19.50;69.10;;;;;;5053460;28;19988;-83
2023/09/28 03:10:12;;;;;;;;;;;19.40;69.00;;;;;;5060892;28;19948;-82
2023/09/28 03:12:38;;;;;;;;;;;19.30;69.10;;;;;;5059172;28;20301;-82
2023/09/28 03:15:04;;;;;;;;;;;19.30;69.10;;;;;;5055124;28;19913;-82
2023/09/28 03:17:30;;;;;;;;;;;19.30;69.40;;;;;;5058422;28;19999;-82
2023/09/28 03:19:56;;;;;;;;;;;19.30;69.40;;;;;;5056282;28;19951;-83
2023/09/28 03:22:21;;;;;;;;;;;19.20;69.80;;;;;;5051195;28;19916;-83
2023/09/28 03:24:47;;;;;;;;;;;19.10;70.10;;;;;;5061037;28;19913;-83
2023/09/28 03:27:13;;;;;;;;;;;19.10;70.40;;;;;;5051739;28;19913;-83
2023/09/28 03:29:38;;;;;;;;;;;19.10;70.60;;;;;;5053309;28;19913;-82
2023/09/28 03:32:04;;;;;;;;;;;19.00;71.50;;;;;;5059959;28;19920;-83
2023/09/28 03:34:29;;;;;;;;;;;19.00;70.90;;;;;;5053494;28;19993;-83
2023/09/28 03:36:55;;;;;;;;;;;19.00;70.90;;;;;;5051016;28;19927;-81
2023/09/28 03:39:21;;;;;;;;;;;19.00;71.30;;;;;;5047373;28;19921;-83
2023/09/28 03:41:46;;;;;;;;;;;18.90;71.70;;;;;;5059452;28;19917;-83
2023/09/28 03:44:12;;;;;;;;;;;18.80;71.80;;;;;;5061498;28;19939;-83
2023/09/28 03:46:37;;;;;;;;;;;18.70;72.70;;;;;;5062657;28;19913;-83
2023/09/28 03:49:03;;;;;;;;;;;18.60;73.30;;;;;;5050368;28;19920;-83
2023/09/28 03:51:29;;;;;;;;;;;18.60;73.90;;;;;;5057923;28;19913;-83
2023/09/28 03:53:55;;;;;;;;;;;18.50;74.90;;;;;;5050604;28;19917;-83
2023/09/28 03:56:21;;;;;;;;;;;18.40;74.50;;;;;;5060364;28;19940;-83
2023/09/28 03:58:47;;;;;;;;;;;18.40;74.50;;;;;;5062078;28;19979;-82
2023/09/28 04:01:13;;;;;;;;;;;18.30;74.80;;;;;;5047145;28;20016;-83
2023/09/28 04:03:39;;;;;;;;;;;18.30;75.00;;;;;;5058054;28;19916;-82
2023/09/28 04:06:05;;;;;;;;;;;18.30;75.10;;;;;;5055211;28;19948;-83
2023/09/28 04:08:31;;;;;;;;;;;18.30;74.90;;;;;;5059949;28;19913;-83
2023/09/28 04:10:56;;;;;;;;;;;18.30;74.80;;;;;;5057221;28;19913;-83
2023/09/28 04:13:22;;;;;;;;;;;18.30;74.90;;;;;;5062257;28;19913;-84
2023/09/28 04:15:48;;;;;;;;;;;18.20;75.30;;;;;;5065810;28;19908;-83
2023/09/28 04:18:14;;;;;;;;;;;18.20;75.60;;;;;;5072520;28;19913;-84
2023/09/28 04:20:41;;;;;;;;;;;18.20;75.50;;;;;;5065782;28;19919;-84
2023/09/28 04:23:08;;;;;;;;;;;18.20;75.60;;;;;;5062709;28;19912;-84
2023/09/28 04:25:35;;;;;;;;;;;18.20;75.20;;;;;;5053353;28;19976;-84
2023/09/28 04:28:00;;;;;;;;;;;18.20;75.20;;;;;;5052825;28;19913;-83
2023/09/28 04:30:26;;;;;;;;;;;18.30;75.00;;;;;;5059373;28;19940;-82
2023/09/28 04:32:51;;;;;;;;;;;18.10;75.30;;;;;;5058588;28;19928;-83
2023/09/28 04:35:20;;;;;;;;;;;18.20;75.30;;;;;;5051360;28;19917;-84
2023/09/28 04:37:47;;;;;;;;;;;18.10;75.30;;;;;;5057325;28;19909;-84
2023/09/28 04:40:13;;;;;;;;;;;18.20;75.10;;;;;;5051163;28;20004;-85
2023/09/28 04:42:39;;;;;;;;;;;18.20;75.40;;;;;;5057340;28;19909;-85
2023/09/28 04:45:05;;;;;;;;;;;18.10;75.20;;;;;;5053468;28;19948;-83
2023/09/28 04:47:32;;;;;;;;;;;18.20;75.60;;;;;;5046883;28;19917;-84
2023/09/28 04:49:58;;;;;;;;;;;18.20;75.00;;;;;;5051820;28;19909;-84
2023/09/28 04:52:23;;;;;;;;;;;18.20;75.20;;;;;;5059240;28;19924;-84
2023/09/28 04:54:51;;;;;;;;;;;18.30;75.50;;;;;;5043960;28;19917;-83
2023/09/28 04:57:16;;;;;;;;;;;18.20;75.80;;;;;;5048674;28;19920;-83
2023/09/28 04:59:42;;;;;;;;;;;18.10;76.60;;;;;;5055281;28;20344;-82
2023/09/28 05:02:08;;;;;;;;;;;18.10;76.70;;;;;;5059698;28;19952;-82
2023/09/28 05:04:34;;;;;;;;;;;18.10;76.80;;;;;;5047666;28;19982;-81
2023/09/28 05:07:01;;;;;;;;;;;18.10;77.70;;;;;;5041314;28;19959;-84
2023/09/28 05:09:27;;;;;;;;;;;18.00;77.90;;;;;;5050004;28;19915;-84
2023/09/28 05:11:53;;;;;;;;;;;17.90;77.90;;;;;;5052482;28;20176;-85
2023/09/28 05:14:23;;;;;;;;;;;17.80;78.00;;;;;;5052220;28;19919;-86
2023/09/28 05:16:50;;;;;;;;;;;17.80;78.10;;;;;;5044945;28;19980;-86
2023/09/28 05:19:15;;;;;;;;;;;17.80;78.60;;;;;;5047580;28;20389;-84
2023/09/28 05:21:41;;;;;;;;;;;17.70;79.00;;;;;;5042435;28;19913;-83
2023/09/28 05:24:06;;;;;;;;;;;17.70;79.00;;;;;;5046096;28;20353;-88
2023/09/28 05:26:32;;;;;;;;;;;17.60;79.20;;;;;;5048451;28;19928;-88
2023/09/28 05:28:58;;;;;;;;;;;17.60;79.40;;;;;;5046030;28;19916;-86
2023/09/28 05:31:27;;;;;;;;;;;17.60;79.80;;;;;;5046277;28;19917;-88
2023/09/28 05:33:53;;;;;;;;;;;17.60;80.00;;;;;;5038147;28;19924;-89
2023/09/28 05:36:20;;;;;;;;;;;17.70;80.20;;;;;;5045675;28;19944;-87
2023/09/28 05:38:46;;;;;;;;;;;17.70;80.20;;;;;;5051476;28;19921;-85
2023/09/28 05:41:12;;;;;;;;;;;17.60;80.20;;;;;;5050815;28;19913;-86
2023/09/28 05:43:38;;;;;;;;;;;17.60;80.00;;;;;;5049418;28;19923;-87
2023/09/28 05:46:04;;;;;;;;;;;17.50;79.60;;;;;;5050987;28;19924;-87
2023/09/28 05:48:33;;;;;;;;;;;17.50;79.80;;;;;;5042452;28;19920;-89
2023/09/28 05:50:58;;;;;;;;;;;17.50;80.10;;;;;;5050331;28;19913;-87
2023/09/28 05:53:30;;;;;;;;;;;17.50;80.50;;;;;;5046990;28;22417;-88
2023/09/28 05:55:56;;;;;;;;;;;17.40;81.00;;;;;;5058177;28;20393;-87
2023/09/28 05:58:21;;;;;;;;;;;17.40;81.00;;;;;;5043501;28;19924;-86
2023/09/28 06:00:50;;;;;;;;;;;17.30;81.20;;;;;;5043787;28;19955;-85
2023/09/28 06:03:16;;;;;;;;;;;17.30;81.40;;;;;;5056353;28;20029;-85
2023/09/28 06:05:41;;;;;;;;;;;17.20;81.50;;;;;;5050058;28;19913;-82
2023/09/28 06:08:07;;;;;;;;;;;17.20;81.90;;;;;;5048312;28;19967;-84
2023/09/28 06:10:33;;;;;;;;;;;17.20;82.30;;;;;;5054669;28;19916;-85
2023/09/28 06:12:59;;;;;;;;;;;17.10;82.30;;;;;;5036928;28;20317;-85
2023/09/28 06:15:27;;;;;;;;;;;17.10;82.50;;;;;;5054101;28;19959;-88
2023/09/28 06:17:53;;;;;;;;;;;17.10;82.40;;;;;;5043237;28;20002;-86
2023/09/28 06:20:20;;;;;;;;;;;17.20;82.10;;;;;;5053289;28;19913;-86
2023/09/28 06:22:45;;;;;;;;;;;17.30;81.90;;;;;;5048034;28;19917;-83
2023/09/28 06:25:13;;;;;;;;;;;17.40;81.70;;;;;;5053838;28;19924;-84
2023/09/28 06:27:42;;;;;;;;;;;17.60;81.40;;;;;;5049567;28;19913;-83
2023/09/28 06:30:08;;;;;;;;;;;17.80;80.80;;;;;;5060848;28;19913;-81
2023/09/28 06:32:33;;;;;;;;;;;17.90;79.90;;;;;;5049190;28;19943;-84
2023/09/28 06:34:59;;;;;;;;;;;18.10;79.10;;;;;;5049207;28;20015;-83
2023/09/28 06:37:25;;;;;;;;;;;18.20;78.50;;;;;;5046484;28;19913;-84
2023/09/28 06:39:51;;;;;;;;;;;18.30;78.10;;;;;;5048209;28;19920;-82
2023/09/28 06:42:16;;;;;;;;;;;18.40;77.80;;;;;;5051502;28;19917;-80
2023/09/28 06:44:42;;;;;;;;;;;18.50;77.70;;;;;;5043017;28;19924;-83
2023/09/28 06:47:07;;;;;;;;;;;18.60;77.70;;;;;;5052267;28;19951;-82
2023/09/28 06:49:34;;;;;;;;;;;18.50;78.20;;;;;;5053157;28;19917;-81
2023/09/28 06:52:00;;;;;;;;;;;18.50;78.30;;;;;;5042330;28;19987;-83
2023/09/28 06:54:25;;;;;;;;;;;18.50;77.90;;;;;;5053063;28;19944;-85
2023/09/28 06:56:51;;;;;;;;;;;18.60;77.40;;;;;;5047681;28;19920;-82
2023/09/28 06:59:17;;;;;;;;;;;18.60;77.70;;;;;;5053057;28;19913;-82
2023/09/28 07:01:42;;;;;;;;;;;18.80;77.40;;;;;;5049113;28;19939;-82
2023/09/28 07:04:08;;;;;;;;;;;18.90;77.10;;;;;;5062353;28;19997;-84
2023/09/28 07:06:33;;;;;;;;;;;18.90;77.20;;;;;;5059660;28;19962;-84
2023/09/28 07:08:59;;;;;;;;;;;18.90;77.30;;;;;;5053950;28;19913;-82
2023/09/28 07:11:26;;;;;;;;;;;18.90;77.40;;;;;;5057498;28;21401;-81
2023/09/28 07:13:51;;;;;;;;;;;18.90;77.70;;;;;;5061362;28;19921;-79
2023/09/28 07:16:17;;;;;;;;;;;19.00;77.50;;;;;;5077385;28;19920;-81
2023/09/28 07:18:42;;;;;;;;;;;19.10;77.20;;;;;;5054904;28;19912;-81
2023/09/28 07:21:08;;;;;;;;;;;19.10;77.30;;;;;;5059881;28;19928;-84
2023/09/28 07:23:34;;;;;;;;;;;19.20;77.50;;;;;;5051092;28;19960;-84
2023/09/28 07:26:00;;;;;;;;;;;19.30;77.30;;;;;;5045125;28;19921;-90
2023/09/28 07:28:26;;;;;;;;;;;19.30;77.50;;;;;;5046361;28;19977;-85
2023/09/28 07:30:52;;;;;;;;;;;19.30;77.60;;;;;;5051843;28;19913;-85
2023/09/28 07:33:17;;;;;;;;;;;19.40;77.70;;;;;;5047698;28;19917;-84
2023/09/28 07:35:43;;;;;;;;;;;19.40;77.80;;;;;;5050246;28;19920;-86
2023/09/28 07:38:09;;;;;;;;;;;19.50;77.40;;;;;;5044261;28;20007;-85
2023/09/28 07:40:34;;;;;;;;;;;19.50;77.60;;;;;;5046146;28;20308;-85
2023/09/28 07:43:00;;;;;;;;;;;19.50;78.10;;;;;;5046530;28;20386;-84
2023/09/28 07:45:25;;;;;;;;;;;19.40;78.20;;;;;;5040686;28;19920;-86
2023/09/28 07:47:51;;;;;;;;;;;19.50;78.00;;;;;;5042419;28;19951;-86
2023/09/28 07:50:17;;;;;;;;;;;19.50;77.80;;;;;;5049374;28;20325;-84
2023/09/28 07:52:43;;;;;;;;;;;19.50;78.10;;;;;;5046629;28;20034;-84
2023/09/28 07:55:08;;;;;;;;;;;19.50;78.20;;;;;;5048239;28;19913;-85
2023/09/28 07:57:34;;;;;;;;;;;19.50;78.30;;;;;;5048192;28;20302;-86
2023/09/28 08:00:00;;;;;;;;;;;19.50;78.30;;;;;;5042122;28;19920;-85
2023/09/28 08:02:25;;;;;;;;;;;19.50;77.90;;;;;;5050958;28;19921;-85
2023/09/28 08:04:53;;;;;;;;;;;19.60;77.60;;;;;;5039336;28;19943;-85
2023/09/28 08:07:19;;;;;;;;;;;19.60;77.40;;;;;;5048722;28;20366;-84
2023/09/28 08:09:44;;;;;;;;;;;19.60;77.20;;;;;;5045163;28;19913;-84
2023/09/28 08:12:10;;;;;;;;;;;19.60;77.50;;;;;;5038530;28;20004;-84
2023/09/28 08:14:35;;;;;;;;;;;19.60;77.50;;;;;;5046366;28;19916;-83
2023/09/28 08:17:01;;;;;;;;;;;19.60;77.10;;;;;;5038796;28;19917;-84
2023/09/28 08:19:26;;;;;;;;;;;19.60;76.20;;;;;;5048976;28;19998;-84
2023/09/28 08:21:52;;;;;;;;;;;19.70;76.50;;;;;;5050240;28;19967;-83
2023/09/28 08:24:17;;;;;;;;;;;19.70;76.20;;;;;;5059634;28;20297;-84
2023/09/28 08:26:43;;;;;;;;;;;19.80;76.10;;;;;;5050349;28;19909;-85
2023/09/28 08:29:08;;;;;;;;;;;20.00;75.00;;;;;;5047973;28;19916;-85
2023/09/28 08:31:34;;;;;;;;;;;20.00;74.70;;;;;;5043097;28;20373;-84
2023/09/28 08:33:59;;;;;;;;;;;20.00;74.20;;;;;;5051195;28;19916;-84
2023/09/28 08:36:25;;;;;;;;;;;19.90;74.60;;;;;;5045361;28;19912;-84
2023/09/28 08:38:51;;;;;;;;;;;20.00;75.40;;;;;;5048790;28;20436;-83
2023/09/28 08:41:19;;;;;;;;;;;20.00;75.40;;;;;;5047224;28;19963;-84
2023/09/28 08:43:54;;;;;;;;;;;20.00;75.30;;;;;;5062880;28;19909;-83
2023/09/28 08:46:20;;;;;;;;;;;20.10;75.10;;;;;;5052870;28;19919;-84
2023/09/28 08:48:47;;;;;;;;;;;20.30;74.90;;;;;;5057282;28;19938;-82
2023/09/28 08:51:13;;;;;;;;;;;20.30;74.40;;;;;;5052222;28;19913;-84
2023/09/28 08:53:38;;;;;;;;;;;20.40;74.40;;;;;;5055603;28;19920;-87
2023/09/28 08:56:07;;;;;;;;;;;20.50;73.80;;;;;;5056453;28;20004;-86
2023/09/28 08:58:33;;;;;;;;;;;20.50;74.10;;;;;;5046272;28;20009;-90
2023/09/28 09:00:59;;;;;;;;;;;20.80;73.10;;;;;;5050861;28;19913;-87
2023/09/28 09:03:25;;;;;;;;;;;20.80;73.30;;;;;;5055298;28;20362;-87
2023/09/28 09:05:52;;;;;;;;;;;20.80;73.40;;;;;;5051162;28;19920;-87
2023/09/28 09:08:19;;;;;;;;;;;20.90;72.90;;;;;;5050559;28;19912;-87
2023/09/28 09:10:46;;;;;;;;;;;21.00;72.80;;;;;;5049674;28;20390;-87
2023/09/28 09:13:18;;;;;;;;;;;21.00;72.80;;;;;;5053697;28;20018;-88
2023/09/28 09:15:44;;;;;;;;;;;21.00;73.20;;;;;;5041844;28;19921;-88
2023/09/28 09:18:16;;;;;;;;;;;21.00;73.10;;;;;;5047975;28;19936;-86
2023/09/28 09:20:42;;;;;;;;;;;21.10;72.60;;;;;;5049767;28;20062;-87
2023/09/28 09:23:11;;;;;;;;;;;21.00;72.60;;;;;;5054047;28;20382;-87
2023/09/28 09:25:40;;;;;;;;;;;21.10;72.30;;;;;;5046683;28;20062;-88
2023/09/28 09:28:06;;;;;;;;;;;21.10;72.10;;;;;;5051239;28;19914;-87
2023/09/28 09:30:37;;;;;;;;;;;21.10;71.90;;;;;;5047000;28;19919;-87
2023/09/28 09:33:06;;;;;;;;;;;21.10;72.60;;;;;;5049695;28;19928;-87
2023/09/28 09:35:33;;;;;;;;;;;21.20;72.30;;;;;;5056118;28;19924;-87
2023/09/28 09:37:59;;;;;;;;;;;21.10;72.90;;;;;;5047435;28;19927;-87
2023/09/28 09:40:25;;;;;;;;;;;21.20;72.80;;;;;;5044188;28;20000;-88
2023/09/28 09:42:51;;;;;;;;;;;21.20;72.20;;;;;;5062823;28;19918;-81
2023/09/28 09:45:18;;;;;;;;;;;21.30;71.50;;;;;;5065935;28;19913;-81
2023/09/28 09:47:46;;;;;;;;;;;21.10;72.10;;;;;;5067129;28;19913;-88
2023/09/28 09:50:13;;;;;;;;;;;21.10;72.40;;;;;;5070140;28;19908;-90
2023/09/28 09:52:39;;;;;;;;;;;21.10;72.30;;;;;;5063576;28;19975;-82
2023/09/28 09:55:04;;;;;;;;;;;21.00;72.50;;;;;;5060820;28;20283;-82
2023/09/28 09:57:32;;;;;;;;;;;21.00;72.60;;;;;;5064448;28;19924;-82
2023/09/28 09:59:58;;;;;;;;;;;21.10;72.80;;;;;;5064773;28;19928;-82
2023/09/28 10:02:25;;;;;;;;;;;21.10;72.70;;;;;;5056753;28;19931;-82
2023/09/28 10:04:54;;;;;;;;;;;21.10;72.40;;;;;;5059765;28;19916;-82
2023/09/28 10:07:24;;;;;;;;;;;21.20;71.80;;;;;;5059846;28;19909;-82
2023/09/28 10:09:50;;;;;;;;;;;21.20;71.80;;;;;;5055146;28;19913;-82
2023/09/28 10:12:16;;;;;;;;;;;21.30;71.30;;;;;;5057577;28;20198;-82
2023/09/28 10:14:41;;;;;;;;;;;21.20;71.40;;;;;;5071908;28;19980;-82
2023/09/28 10:17:09;;;;;;;;;;;21.30;71.40;;;;;;5069858;28;19913;-82
2023/09/28 10:19:34;;;;;;;;;;;21.30;71.90;;;;;;5064138;28;19980;-82
2023/09/28 10:22:00;;;;;;;;;;;21.30;72.00;;;;;;5065021;28;19909;-83
2023/09/28 10:24:30;;;;;;;;;;;21.40;71.70;;;;;;5060690;28;19917;-83
2023/09/28 10:26:56;;;;;;;;;;;21.50;71.90;;;;;;5066093;28;20501;-83
2023/09/28 10:29:23;;;;;;;;;;;21.60;71.30;;;;;;5054189;28;19912;-83
2023/09/28 10:31:51;;;;;;;;;;;21.60;70.90;;;;;;5056242;28;19917;-83
2023/09/28 10:34:20;;;;;;;;;;;21.60;71.50;;;;;;5053765;28;19926;-82
2023/09/28 10:37:05;;;;;;;;;;;21.60;71.50;;;;;;5057237;28;19916;-82
2023/09/28 10:39:31;;;;;;;;;;;21.60;71.10;;;;;;5058202;28;19917;-81
2023/09/28 10:42:03;;;;;;;;;;;21.60;71.10;;;;;;5048747;28;19920;-82
2023/09/28 10:44:31;;;;;;;;;;;21.60;70.80;;;;;;5064823;28;19944;-82
2023/09/28 10:46:57;;;;;;;;;;;21.60;70.20;;;;;;5056378;28;19913;-83
2023/09/28 10:49:23;;;;;;;;;;;21.60;70.50;;;;;;5055155;28;19909;-81
2023/09/28 10:51:49;;;;;;;;;;;21.70;70.80;;;;;;5050715;28;19921;-82
2023/09/28 10:54:14;;;;;;;;;;;21.80;70.90;;;;;;5063022;28;19916;-82
2023/09/28 10:56:40;;;;;;;;;;;21.90;70.50;;;;;;5061878;28;19951;-81
2023/09/28 10:59:06;;;;;;;;;;;22.00;69.70;;;;;;5060302;28;19940;-82
2023/09/28 11:01:32;;;;;;;;;;;22.10;69.70;;;;;;5062309;28;20460;-82
2023/09/28 11:03:57;;;;;;;;;;;22.10;69.80;;;;;;5060100;28;19956;-82
2023/09/28 11:06:23;;;;;;;;;;;22.10;69.60;;;;;;5063077;28;19920;-83
2023/09/28 11:08:49;;;;;;;;;;;22.10;69.30;;;;;;5060862;28;19948;-83
2023/09/28 11:11:17;;;;;;;;;;;22.00;69.50;;;;;;5064057;28;19913;-81
2023/09/28 11:13:43;;;;;;;;;;;22.00;70.00;;;;;;5064620;28;19929;-82
2023/09/28 11:16:11;;;;;;;;;;;21.90;70.10;;;;;;5060028;28;19919;-82
2023/09/28 11:18:37;;;;;;;;;;;21.80;70.60;;;;;;5063545;28;19908;-82
2023/09/28 11:21:03;;;;;;;;;;;22.00;70.70;;;;;;5069545;28;19966;-82
2023/09/28 11:23:29;;;;;;;;;;;21.90;70.50;;;;;;5071527;28;19948;-82
2023/09/28 11:25:54;;;;;;;;;;;22.00;70.70;;;;;;5063602;28;19920;-81
2023/09/28 11:28:21;;;;;;;;;;;21.90;70.80;;;;;;5060568;28;19966;-83
2023/09/28 11:31:02;;;;;;;;;;;21.90;70.80;;;;;;5066822;28;19912;-82
2023/09/28 11:33:28;;;;;;;;;;;22.10;70.50;;;;;;5072762;28;19913;-82
2023/09/28 11:35:54;;;;;;;;;;;22.10;70.10;;;;;;5074430;28;19917;-82
2023/09/28 11:38:19;;;;;;;;;;;22.10;70.00;;;;;;5071428;28;19913;-82
2023/09/28 11:40:47;;;;;;;;;;;22.10;70.10;;;;;;5058398;28;19909;-82
2023/09/28 11:43:12;;;;;;;;;;;22.10;70.50;;;;;;5062360;28;19921;-82
2023/09/28 11:45:38;;;;;;;;;;;22.20;69.90;;;;;;5064119;28;19916;-82
2023/09/28 11:48:09;;;;;;;;;;;22.10;69.90;;;;;;5053080;28;19935;-82
2023/09/28 11:50:35;;;;;;;;;;;22.20;70.30;;;;;;5056111;28;19920;-82
2023/09/28 11:53:02;;;;;;;;;;;22.20;70.40;;;;;;5071414;28;19925;-82
2023/09/28 11:55:27;;;;;;;;;;;22.10;69.70;;;;;;5064172;28;20283;-83
2023/09/28 11:57:57;;;;;;;;;;;22.10;69.80;;;;;;5063322;28;19924;-82
2023/09/28 12:00:24;;;;;;;;;;;22.20;69.70;;;;;;5052943;28;20470;-82
2023/09/28 12:02:50;;;;;;;;;;;22.30;69.30;;;;;;5053947;28;19913;-82
2023/09/28 12:05:17;;;;;;;;;;;22.30;69.50;;;;;;5051383;28;19913;-82
2023/09/28 12:07:43;;;;;;;;;;;22.30;69.60;;;;;;5054762;28;19909;-82
2023/09/28 12:10:11;;;;;;;;;;;22.30;69.70;;;;;;5057114;28;19966;-82
2023/09/28 12:12:40;;;;;;;;;;;22.30;69.90;;;;;;5053604;28;19923;-82
2023/09/28 12:15:10;;;;;;;;;;;22.30;69.90;;;;;;5044572;28;19920;-82
2023/09/28 12:17:39;;;;;;;;;;;22.20;70.10;;;;;;5054063;28;20207;-82
2023/09/28 12:20:09;;;;;;;;;;;22.10;70.50;;;;;;5053883;28;19920;-81
2023/09/28 12:22:37;;;;;;;;;;;22.10;70.40;;;;;;5050257;28;19928;-82
2023/09/28 12:25:04;;;;;;;;;;;22.10;70.90;;;;;;5069092;28;20331;-82
2023/09/28 12:27:31;;;;;;;;;;;22.20;70.60;;;;;;5049424;28;19919;-82
2023/09/28 12:29:56;;;;;;;;;;;22.30;70.30;;;;;;5047743;28;19909;-82
2023/09/28 12:32:24;;;;;;;;;;;22.30;70.10;;;;;;5040814;28;19913;-80
2023/09/28 12:34:50;;;;;;;;;;;22.40;70.00;;;;;;5051665;28;20301;-82
2023/09/28 12:37:16;;;;;;;;;;;22.50;68.60;;;;;;5051191;28;19909;-82
2023/09/28 12:39:42;;;;;;;;;;;22.50;68.30;;;;;;5049688;28;19987;-82
2023/09/28 12:42:09;;;;;;;;;;;22.50;68.50;;;;;;5042008;28;20320;-83
2023/09/28 12:44:35;;;;;;;;;;;22.50;68.90;;;;;;5046290;28;19970;-82
2023/09/28 12:47:00;;;;;;;;;;;22.60;68.80;;;;;;5057932;28;19913;-83
2023/09/28 12:49:26;;;;;;;;;;;22.60;68.40;;;;;;5058261;28;19916;-84
2023/09/28 12:51:51;;;;;;;;;;;22.70;68.20;;;;;;5056921;28;20362;-84
2023/09/28 12:54:17;;;;;;;;;;;22.60;68.20;;;;;;5056303;28;19924;-84
2023/09/28 12:56:43;;;;;;;;;;;22.60;68.20;;;;;;5047234;28;19917;-85
2023/09/28 12:59:09;;;;;;;;;;;22.60;68.40;;;;;;5059093;28;19943;-83
2023/09/28 13:01:35;;;;;;;;;;;22.60;68.50;;;;;;5052368;28;19913;-85
2023/09/28 13:04:04;;;;;;;;;;;22.50;69.10;;;;;;5057786;28;19920;-83
2023/09/28 13:06:30;;;;;;;;;;;22.50;68.40;;;;;;5057433;28;19980;-83
2023/09/28 13:08:57;;;;;;;;;;;22.60;67.70;;;;;;5063061;28;19913;-83
2023/09/28 13:11:22;;;;;;;;;;;22.60;67.50;;;;;;5059396;28;19913;-83
2023/09/28 13:13:48;;;;;;;;;;;22.60;67.00;;;;;;5061813;28;19916;-84
2023/09/28 13:16:14;;;;;;;;;;;22.60;67.10;;;;;;5055046;28;19944;-82
2023/09/28 13:18:40;;;;;;;;;;;22.50;66.40;;;;;;5064936;28;20328;-83
2023/09/28 13:21:07;;;;;;;;;;;22.50;66.80;;;;;;5050812;28;19956;-83
2023/09/28 13:23:32;;;;;;;;;;;22.40;67.30;;;;;;5052349;28;19912;-84
2023/09/28 13:25:57;;;;;;;;;;;22.40;67.60;;;;;;5047466;28;19917;-83
2023/09/28 13:28:23;;;;;;;;;;;22.50;67.40;;;;;;5042896;28;19921;-86
2023/09/28 13:30:48;;;;;;;;;;;22.40;68.20;;;;;;5041580;28;19924;-87
2023/09/28 13:33:14;;;;;;;;;;;22.50;67.00;;;;;;5047124;28;19998;-82
2023/09/28 13:35:41;;;;;;;;;;;22.60;66.60;;;;;;5048631;28;20003;-84
2023/09/28 13:38:08;;;;;;;;;;;22.60;67.10;;;;;;5050168;28;19920;-84
2023/09/28 13:40:34;;;;;;;;;;;22.60;67.30;;;;;;5048807;28;19918;-83
2023/09/28 13:43:01;;;;;;;;;;;22.60;66.80;;;;;;5048309;28;19912;-82
2023/09/28 13:45:26;;;;;;;;;;;22.60;66.60;;;;;;5043346;28;19974;-86
2023/09/28 13:47:55;;;;;;;;;;;22.60;66.80;;;;;;5052109;28;19913;-88
2023/09/28 13:50:21;;;;;;;;;;;22.60;66.30;;;;;;5057011;28;19972;-89
2023/09/28 13:52:49;;;;;;;;;;;22.60;67.20;;;;;;5048006;28;20461;-89
2023/09/28 13:55:16;;;;;;;;;;;22.60;66.60;;;;;;5054506;28;19920;-91
2023/09/28 13:57:43;;;;;;;;;;;22.60;67.00;;;;;;5058479;28;19913;-89
2023/09/28 14:02:54;;;;;;;;;;;22.60;67.00;;;;;;5058857;28;19913;-90
2023/09/28 14:05:20;;;;;;;;;;;22.60;66.90;;;;;;5060288;28;19913;-88
2023/09/28 14:07:55;;;;;;;;;;;22.50;67.70;;;;;;5058301;28;19920;-90
2023/09/28 14:10:25;;;;;;;;;;;22.50;67.30;;;;;;5054628;28;19916;-90
2023/09/28 14:13:01;;;;;;;;;;;22.50;67.70;;;;;;5047733;28;19925;-88
2023/09/28 14:22:17;;;;;;;;;;;22.30;68.30;;;;;;5055895;28;19917;-87
2023/09/28 14:25:01;;;;;;;;;;;22.30;68.50;;;;;;5058428;28;19963;-88
2023/09/28 14:27:55;;;;;;;;;;;22.10;68.70;;;;;;5066163;28;19947;-87
2023/09/28 14:30:34;;;;;;;;;;;22.10;68.80;;;;;;5049025;28;19918;-86
2023/09/28 14:33:01;;;;;;;;;;;22.10;69.40;;;;;;5077916;28;20512;-84
2023/09/28 14:35:26;;;;;;;;;;;22.10;68.90;;;;;;5061109;28;19913;-84
2023/09/28 14:37:52;;;;;;;;;;;22.10;68.50;;;;;;5046268;28;19913;-85